createdAt,value
2022-10-09T00:01:11.492Z,13.43
2022-10-09T00:03:39.620Z,9.18
2022-10-09T00:06:11.192Z,10.77
2022-10-09T00:08:43.735Z,10.48
2022-10-09T00:11:16.169Z,12.90
2022-10-09T00:13:43.294Z,10.35
2022-10-09T00:16:12.333Z,9.77
2022-10-09T00:18:41.125Z,11.50
2022-10-09T00:21:17.259Z,10.02
2022-10-09T00:23:43.903Z,13.90
2022-10-09T00:26:12.106Z,12.30
2022-10-09T00:28:39.169Z,12.50
2022-10-09T00:31:10.405Z,13.45
2022-10-09T00:33:38.125Z,9.30
2022-10-09T00:36:07.161Z,11.88
2022-10-09T00:38:34.479Z,10.15
2022-10-09T00:41:01.132Z,9.55
2022-10-09T00:44:23.210Z,9.02
2022-10-09T00:46:51.921Z,11.75
2022-10-09T00:49:27.133Z,13.32
2022-10-09T00:51:55.987Z,11.52
2022-10-09T00:54:25.168Z,10.75
2022-10-09T00:56:52.017Z,13.45
2022-10-09T00:59:19.370Z,13.93
2022-10-09T01:01:46.736Z,9.02
2022-10-09T01:04:14.109Z,10.50
2022-10-09T01:07:12.784Z,9.77
2022-10-09T01:09:47.048Z,11.73
2022-10-09T01:12:47.053Z,16.20
2022-10-09T01:15:16.872Z,16.27
2022-10-09T01:18:07.754Z,13.45
2022-10-09T01:20:38.889Z,11.23
2022-10-09T01:23:05.474Z,11.15
2022-10-09T01:25:46.408Z,12.65
2022-10-09T01:28:13.931Z,10.85
2022-10-09T01:30:41.127Z,11.52
2022-10-09T01:33:08.109Z,13.32
2022-10-09T01:35:35.043Z,9.50
2022-10-09T01:38:02.788Z,11.80
2022-10-09T01:40:29.497Z,11.32
2022-10-09T01:42:56.520Z,14.73
2022-10-09T01:45:23.284Z,14.98
2022-10-09T01:47:49.977Z,10.82
2022-10-09T01:50:28.330Z,12.77
2022-10-09T01:53:01.905Z,11.75
2022-10-09T01:55:56.744Z,16.17
2022-10-09T01:58:36.901Z,12.20
2022-10-09T02:01:17.085Z,17.17
2022-10-09T02:03:48.330Z,15.20
2022-10-09T02:06:16.417Z,11.63
2022-10-09T02:08:45.200Z,13.63
2022-10-09T02:11:14.937Z,18.88
2022-10-09T02:13:41.821Z,13.70
2022-10-09T02:16:11.460Z,18.52
2022-10-09T02:18:46.867Z,11.50
2022-10-09T02:23:42.112Z,16.65
2022-10-09T02:26:09.654Z,15.73
2022-10-09T02:28:36.681Z,15.70
2022-10-09T02:31:09.761Z,15.40
2022-10-09T02:33:36.853Z,13.48
2022-10-09T02:36:03.818Z,17.33
2022-10-09T02:38:30.460Z,15.85
2022-10-09T02:40:58.920Z,16.50
2022-10-09T02:43:25.583Z,18.15
2022-10-09T02:45:52.216Z,17.45
2022-10-09T02:48:18.889Z,18.65
2022-10-09T02:50:45.933Z,13.27
2022-10-09T02:53:12.619Z,18.05
2022-10-09T02:55:39.244Z,15.93
2022-10-09T02:58:05.851Z,17.10
2022-10-09T03:00:32.659Z,14.77
2022-10-09T03:02:59.420Z,18.90
2022-10-09T03:05:26.128Z,17.75
2022-10-09T03:07:53.766Z,14.13
2022-10-09T03:10:21.290Z,18.13
2022-10-09T03:12:48.422Z,17.58
2022-10-09T03:15:15.797Z,20.60
2022-10-09T03:17:42.548Z,21.90
2022-10-09T03:20:09.905Z,17.27
2022-10-09T03:22:36.541Z,16.90
2022-10-09T03:25:03.361Z,18.27
2022-10-09T03:27:31.334Z,21.63
2022-10-09T03:29:58.789Z,16.02
2022-10-09T03:32:25.497Z,14.75
2022-10-09T03:34:52.345Z,14.50
2022-10-09T03:37:18.956Z,16.90
2022-10-09T03:39:45.677Z,21.30
2022-10-09T03:42:12.285Z,17.50
2022-10-09T03:44:39.051Z,18.30
2022-10-09T03:47:06.174Z,17.73
2022-10-09T03:49:32.939Z,13.45
2022-10-09T03:51:59.699Z,15.88
2022-10-09T03:54:26.856Z,17.38
2022-10-09T03:56:53.605Z,16.38
2022-10-09T03:59:20.279Z,16.90
2022-10-09T04:01:46.959Z,18.55
2022-10-09T04:04:13.727Z,14.23
2022-10-09T04:06:40.468Z,15.43
2022-10-09T04:09:07.334Z,17.33
2022-10-09T04:11:34.134Z,13.20
2022-10-09T04:14:01.146Z,15.40
2022-10-09T04:16:27.983Z,18.95
2022-10-09T04:18:54.683Z,18.63
2022-10-09T04:21:21.317Z,16.90
2022-10-09T04:23:47.954Z,20.77
2022-10-09T04:26:14.663Z,17.98
2022-10-09T04:28:41.331Z,19.33
2022-10-09T04:31:08.199Z,15.68
2022-10-09T04:33:34.936Z,15.57
2022-10-09T04:36:01.550Z,16.77
2022-10-09T04:38:28.413Z,19.92
2022-10-09T04:40:58.560Z,18.83
2022-10-09T04:43:25.993Z,21.55
2022-10-09T04:46:26.423Z,20.95
2022-10-09T04:48:53.226Z,22.70
2022-10-09T04:51:19.989Z,27.02
2022-10-09T04:53:47.060Z,21.75
2022-10-09T04:56:16.253Z,17.55
2022-10-09T04:58:43.670Z,18.63
2022-10-09T05:01:16.827Z,19.42
2022-10-09T05:03:43.851Z,14.88
2022-10-09T05:06:12.080Z,16.88
2022-10-09T05:08:39.288Z,16.90
2022-10-09T05:11:08.326Z,14.43
2022-10-09T05:13:37.817Z,16.95
2022-10-09T05:16:07.541Z,17.83
2022-10-09T05:18:35.420Z,19.15
2022-10-09T05:21:06.201Z,20.77
2022-10-09T05:23:33.272Z,17.17
2022-10-09T05:26:03.715Z,13.75
2022-10-09T05:28:30.755Z,18.23
2022-10-09T05:31:27.380Z,15.07
2022-10-09T05:33:56.493Z,20.90
2022-10-09T05:36:23.170Z,18.60
2022-10-09T05:38:52.368Z,16.60
2022-10-09T05:41:22.895Z,16.83
2022-10-09T05:43:49.908Z,15.82
2022-10-09T05:46:24.384Z,19.17
2022-10-09T05:48:56.476Z,14.48
2022-10-09T05:51:26.594Z,15.13
2022-10-09T05:53:53.926Z,19.77
2022-10-09T05:56:24.489Z,14.35
2022-10-09T05:58:53.590Z,16.50
2022-10-09T06:01:21.269Z,16.42
2022-10-09T06:03:52.026Z,15.70
2022-10-09T06:06:20.416Z,19.30
2022-10-09T06:08:47.683Z,15.63
2022-10-09T06:11:15.787Z,19.35
2022-10-09T06:13:42.859Z,18.10
2022-10-09T06:16:11.934Z,20.40
2022-10-09T06:18:40.178Z,19.20
2022-10-09T06:21:07.494Z,21.00
2022-10-09T06:23:34.325Z,23.55
2022-10-09T06:26:04.039Z,20.50
2022-10-09T06:28:32.396Z,15.98
2022-10-09T06:31:06.790Z,20.30
2022-10-09T06:33:35.098Z,23.17
2022-10-09T06:36:11.098Z,23.83
2022-10-09T06:38:38.715Z,24.83
2022-10-09T06:41:10.608Z,19.65
2022-10-09T06:43:37.974Z,18.58
2022-10-09T06:48:48.365Z,19.30
2022-10-09T06:51:17.777Z,18.52
2022-10-09T06:53:49.795Z,18.45
2022-10-09T06:56:17.705Z,17.08
2022-10-09T06:58:45.189Z,23.00
2022-10-09T07:01:21.418Z,20.23
2022-10-09T07:03:53.404Z,17.58
2022-10-09T07:06:26.068Z,18.20
2022-10-09T07:08:55.684Z,19.75
2022-10-09T07:11:24.959Z,16.92
2022-10-09T07:13:54.966Z,19.48
2022-10-09T07:16:25.609Z,21.20
2022-10-09T07:18:52.755Z,14.40
2022-10-09T07:21:19.936Z,12.40
2022-10-09T07:23:46.881Z,16.08
2022-10-09T07:26:18.608Z,18.98
2022-10-09T07:28:46.678Z,17.38
2022-10-09T07:31:14.008Z,18.85
2022-10-09T07:33:41.863Z,15.20
2022-10-09T07:36:10.034Z,14.60
2022-10-09T07:38:36.743Z,15.02
2022-10-09T07:41:14.852Z,15.18
2022-10-09T07:43:42.324Z,16.10
2022-10-09T07:46:12.603Z,20.23
2022-10-09T07:48:39.895Z,17.13
2022-10-09T07:51:24.127Z,18.42
2022-10-09T07:53:53.647Z,15.40
2022-10-09T07:56:22.795Z,17.63
2022-10-09T07:58:51.302Z,17.60
2022-10-09T08:01:20.259Z,24.65
2022-10-09T08:03:47.766Z,13.75
2022-10-09T08:06:14.439Z,19.15
2022-10-09T08:08:41.482Z,25.25
2022-10-09T08:11:11.633Z,23.95
2022-10-09T08:13:38.671Z,19.08
2022-10-09T08:16:07.232Z,18.92
2022-10-09T08:18:34.520Z,14.68
2022-10-09T08:21:07.753Z,17.40
2022-10-09T08:23:34.605Z,16.33
2022-10-09T08:26:01.265Z,13.77
2022-10-09T08:28:28.036Z,17.67
2022-10-09T08:30:54.761Z,14.13
2022-10-09T08:33:23.585Z,15.98
2022-10-09T08:35:50.844Z,13.85
2022-10-09T08:38:44.726Z,14.48
2022-10-09T08:41:27.979Z,11.15
2022-10-09T08:44:01.877Z,13.50
2022-10-09T08:46:49.279Z,8.63
2022-10-09T08:49:26.213Z,10.75
2022-10-09T08:51:53.514Z,9.75
2022-10-09T08:54:39.712Z,10.05
2022-10-09T08:57:12.924Z,10.50
2022-10-09T08:59:40.021Z,10.38
2022-10-09T09:02:28.118Z,8.55
2022-10-09T09:05:24.180Z,8.02
2022-10-09T09:10:32.375Z,7.18
2022-10-09T09:13:13.770Z,9.43
2022-10-09T09:15:58.784Z,9.80
2022-10-09T09:18:47.347Z,7.38
2022-10-09T09:21:22.296Z,10.15
2022-10-09T09:23:49.230Z,10.02
2022-10-09T09:26:19.381Z,11.07
2022-10-09T09:28:47.827Z,9.70
2022-10-09T09:31:25.845Z,11.82
2022-10-09T09:34:11.320Z,8.07
2022-10-09T09:42:19.471Z,8.15
2022-10-09T09:45:07.014Z,7.20
2022-10-09T09:47:45.915Z,10.13
2022-10-09T09:50:35.035Z,6.68
2022-10-09T09:53:03.780Z,8.45
2022-10-09T09:55:31.561Z,12.68
2022-10-09T09:58:18.024Z,6.38
2022-10-09T10:00:57.277Z,8.13
2022-10-09T10:03:25.307Z,9.80
2022-10-09T10:05:52.099Z,8.52
2022-10-09T10:08:26.072Z,7.68
2022-10-09T10:10:56.069Z,8.85
2022-10-09T10:13:34.713Z,9.45
2022-10-09T10:16:02.030Z,6.18
2022-10-09T10:18:32.477Z,7.95
2022-10-09T10:21:04.889Z,6.90
2022-10-09T10:23:39.194Z,6.40
2022-10-09T10:26:23.509Z,10.98
2022-10-09T10:28:54.087Z,12.80
2022-10-09T10:31:59.321Z,8.43
2022-10-09T10:34:43.751Z,8.88
2022-10-09T10:37:38.744Z,6.55
2022-10-09T10:40:05.528Z,10.40
2022-10-09T10:42:43.668Z,9.13
2022-10-09T10:45:10.418Z,9.23
2022-10-09T10:47:41.576Z,7.82
2022-10-09T10:50:14.100Z,11.55
2022-10-09T10:52:40.720Z,10.43
2022-10-09T10:55:19.647Z,8.45
2022-10-09T10:57:56.052Z,9.63
2022-10-09T11:00:22.955Z,9.07
2022-10-09T11:03:08.603Z,5.50
2022-10-09T11:05:41.229Z,8.60
2022-10-09T11:08:55.787Z,9.68
2022-10-09T11:11:26.969Z,5.93
2022-10-09T11:14:05.029Z,9.77
2022-10-09T11:17:05.422Z,11.85
2022-10-09T11:20:10.008Z,7.38
2022-10-09T11:22:49.840Z,8.88
2022-10-09T11:25:32.888Z,10.57
2022-10-09T11:28:45.419Z,12.45
2022-10-09T11:31:20.504Z,10.05
2022-10-09T11:36:27.863Z,12.52
2022-10-09T11:39:14.694Z,13.60
2022-10-09T11:41:43.172Z,7.43
2022-10-09T11:45:01.531Z,9.23
2022-10-09T11:47:40.111Z,8.88
2022-10-09T11:50:34.806Z,8.77
2022-10-09T11:53:09.485Z,10.93
2022-10-09T11:55:36.418Z,12.68
2022-10-09T11:58:15.433Z,14.10
2022-10-09T12:00:42.999Z,12.80
2022-10-09T12:03:22.809Z,11.80
2022-10-09T12:06:08.133Z,14.60
2022-10-09T12:08:35.692Z,10.60
2022-10-09T12:11:18.972Z,17.02
2022-10-09T12:13:48.184Z,15.02
2022-10-09T12:16:35.383Z,14.15
2022-10-09T12:19:21.268Z,16.92
2022-10-09T12:21:52.207Z,17.85
2022-10-09T12:24:27.373Z,22.48
2022-10-09T12:26:56.839Z,21.58
2022-10-09T12:29:52.906Z,19.13
2022-10-09T12:32:37.185Z,21.77
2022-10-09T12:35:30.360Z,17.67
2022-10-09T12:37:57.479Z,23.00
2022-10-09T12:40:32.122Z,18.90
2022-10-09T12:43:17.495Z,21.40
2022-10-09T12:45:46.203Z,16.48
2022-10-09T12:48:13.598Z,18.15
2022-10-09T12:50:40.484Z,18.90
2022-10-09T12:53:13.560Z,15.75
2022-10-09T12:56:10.642Z,17.15
2022-10-09T12:58:39.497Z,21.17
2022-10-09T13:01:11.077Z,19.48
2022-10-09T13:03:43.687Z,18.83
2022-10-09T13:06:19.414Z,19.80
2022-10-09T13:08:46.639Z,23.13
2022-10-09T13:11:19.073Z,19.35
2022-10-09T13:13:52.115Z,26.77
2022-10-09T13:16:18.825Z,24.25
2022-10-09T13:19:02.460Z,21.70
2022-10-09T13:21:34.343Z,35.85
2022-10-09T13:24:13.379Z,25.42
2022-10-09T13:26:43.633Z,25.77
2022-10-09T13:29:12.211Z,27.92
2022-10-09T13:31:46.211Z,31.42
2022-10-09T13:34:14.239Z,30.80
2022-10-09T13:36:41.602Z,27.45
2022-10-09T13:39:14.034Z,31.33
2022-10-09T13:41:41.191Z,30.25
2022-10-09T13:44:08.423Z,25.50
2022-10-09T13:46:35.957Z,32.78
2022-10-09T13:49:02.885Z,28.20
2022-10-09T13:51:29.618Z,34.58
2022-10-09T13:53:56.937Z,34.70
2022-10-09T13:56:24.246Z,33.13
2022-10-09T13:58:53.921Z,33.13
2022-10-09T14:01:20.733Z,29.88
2022-10-09T14:03:48.076Z,31.73
2022-10-09T14:06:14.733Z,35.58
2022-10-09T14:08:41.440Z,31.02
2022-10-09T14:11:08.336Z,32.97
2022-10-09T14:13:34.996Z,28.73
2022-10-09T14:16:06.716Z,35.53
2022-10-09T14:18:34.007Z,32.00
2022-10-09T14:21:00.811Z,29.42
2022-10-09T14:23:27.975Z,33.80
2022-10-09T14:26:04.295Z,40.72
2022-10-09T14:28:31.749Z,33.38
2022-10-09T14:30:58.626Z,35.63
2022-10-09T14:33:25.575Z,29.88
2022-10-09T14:35:53.217Z,33.70
2022-10-09T14:38:20.175Z,35.67
2022-10-09T14:40:47.136Z,33.03
2022-10-09T14:43:14.211Z,36.08
2022-10-09T14:45:40.974Z,32.92
2022-10-09T14:48:07.667Z,32.67
2022-10-09T14:50:35.681Z,37.70
2022-10-09T14:53:02.360Z,32.70
2022-10-09T14:55:28.978Z,31.35
2022-10-09T14:57:55.646Z,31.63
2022-10-09T15:00:22.315Z,33.97
2022-10-09T15:02:48.954Z,34.90
2022-10-09T15:05:15.769Z,30.50
2022-10-09T15:07:42.453Z,31.30
2022-10-09T15:10:09.454Z,34.30
2022-10-09T15:12:36.224Z,35.38
2022-10-09T15:15:02.886Z,31.88
2022-10-09T15:17:29.534Z,34.53
2022-10-09T15:19:56.165Z,33.88
2022-10-09T15:22:22.769Z,38.33
2022-10-09T15:24:58.536Z,35.10
2022-10-09T15:27:25.129Z,33.55
2022-10-09T15:29:51.862Z,41.35
2022-10-09T15:32:18.553Z,32.85
2022-10-09T15:34:45.183Z,37.38
2022-10-09T15:37:11.827Z,30.75
2022-10-09T15:39:40.902Z,36.55
2022-10-09T15:42:07.637Z,28.58
2022-10-09T15:44:34.309Z,36.20
2022-10-09T15:47:01.018Z,33.33
2022-10-09T15:49:27.770Z,34.38
2022-10-09T15:51:54.492Z,37.72
2022-10-09T15:54:21.184Z,36.70
2022-10-09T15:56:47.855Z,34.00
2022-10-09T15:59:17.020Z,33.58
2022-10-09T16:01:43.985Z,35.38
2022-10-09T16:04:11.020Z,35.47
2022-10-09T16:06:38.252Z,35.60
2022-10-09T16:09:05.529Z,36.83
2022-10-09T16:11:32.190Z,32.58
2022-10-09T16:13:59.405Z,32.75
2022-10-09T16:16:27.770Z,37.92
2022-10-09T16:18:55.113Z,35.42
2022-10-09T16:21:28.071Z,32.08
2022-10-09T16:24:04.293Z,37.08
2022-10-09T16:26:31.038Z,34.20
2022-10-09T16:29:00.283Z,37.40
2022-10-09T16:31:35.027Z,30.83
2022-10-09T16:34:03.257Z,30.40
2022-10-09T16:36:30.165Z,35.92
2022-10-09T16:38:57.344Z,27.17
2022-10-09T16:41:24.556Z,39.22
2022-10-09T16:43:53.405Z,30.85
2022-10-09T16:46:28.416Z,33.55
2022-10-09T16:48:57.019Z,31.17
2022-10-09T16:51:35.947Z,33.30
2022-10-09T16:54:05.039Z,32.03
2022-10-09T16:56:34.575Z,30.45
2022-10-09T16:59:03.876Z,27.23
2022-10-09T17:01:30.993Z,36.85
2022-10-09T17:03:58.664Z,33.45
2022-10-09T17:06:26.059Z,28.40
2022-10-09T17:08:54.724Z,34.90
2022-10-09T17:11:22.261Z,28.70
2022-10-09T17:13:49.098Z,29.75
2022-10-09T17:16:20.562Z,33.55
2022-10-09T17:18:48.010Z,34.72
2022-10-09T17:21:16.329Z,31.27
2022-10-09T17:23:43.188Z,30.85
2022-10-09T17:26:12.658Z,27.30
2022-10-09T17:28:40.507Z,29.23
2022-10-09T17:31:09.399Z,32.17
2022-10-09T17:33:42.352Z,30.88
2022-10-09T17:36:10.083Z,32.80
2022-10-09T17:38:37.550Z,36.50
2022-10-09T17:41:05.704Z,34.42
2022-10-09T17:43:33.174Z,30.42
2022-10-09T17:46:00.983Z,36.42
2022-10-09T17:48:29.131Z,34.83
2022-10-09T17:50:58.708Z,33.58
2022-10-09T17:53:25.926Z,31.77
2022-10-09T17:55:54.593Z,40.58
2022-10-09T17:58:23.057Z,32.95
2022-10-09T18:00:50.690Z,36.40
2022-10-09T18:03:18.175Z,36.38
2022-10-09T18:05:47.030Z,38.63
2022-10-09T18:08:15.872Z,37.70
2022-10-09T18:10:42.786Z,31.00
2022-10-09T18:13:10.520Z,27.73
2022-10-09T18:15:39.103Z,28.35
2022-10-09T18:18:06.073Z,22.58
2022-10-09T18:20:37.466Z,24.75
2022-10-09T18:23:04.925Z,21.08
2022-10-09T18:25:33.912Z,24.92
2022-10-09T18:28:01.276Z,20.88
2022-10-09T18:30:28.249Z,15.55
2022-10-09T18:32:57.690Z,14.88
2022-10-09T18:35:25.815Z,18.30
2022-10-09T18:37:52.939Z,14.70
2022-10-09T18:40:19.694Z,14.45
2022-10-09T18:42:46.857Z,11.45
2022-10-09T18:45:16.326Z,11.30
2022-10-09T18:47:44.357Z,13.55
2022-10-09T18:50:12.360Z,15.25
2022-10-09T18:52:44.558Z,16.15
2022-10-09T18:55:13.132Z,14.80
2022-10-09T18:57:41.077Z,11.27
2022-10-09T19:00:09.301Z,16.05
2022-10-09T19:02:36.138Z,14.95
2022-10-09T19:05:03.419Z,13.25
2022-10-09T19:07:30.380Z,14.60
2022-10-09T19:09:57.627Z,25.65
2022-10-09T19:12:25.464Z,13.80
2022-10-09T19:14:52.545Z,14.43
2022-10-09T19:17:19.900Z,15.45
2022-10-09T19:19:47.457Z,12.55
2022-10-09T19:22:17.372Z,16.15
2022-10-09T19:24:47.151Z,14.93
2022-10-09T19:27:15.209Z,12.48
2022-10-09T19:29:42.406Z,10.55
2022-10-09T19:32:09.652Z,11.80
2022-10-09T19:34:38.255Z,10.85
2022-10-09T19:39:32.946Z,9.25
2022-10-09T19:42:03.260Z,10.82
2022-10-09T19:44:30.191Z,13.23
2022-10-09T19:46:57.339Z,11.75
2022-10-09T19:49:24.296Z,10.38
2022-10-09T19:51:59.647Z,11.52
2022-10-09T19:56:53.422Z,10.70
2022-10-09T19:59:23.760Z,10.13
2022-10-09T20:01:55.187Z,9.93
2022-10-09T20:04:24.297Z,8.10
2022-10-09T20:06:52.729Z,14.15
2022-10-09T20:09:20.964Z,9.02
2022-10-09T20:11:48.111Z,10.68
2022-10-09T20:14:15.154Z,14.30
2022-10-09T20:16:41.958Z,9.63
2022-10-09T20:19:08.919Z,9.27
2022-10-09T20:21:38.965Z,7.75
2022-10-09T20:24:06.419Z,7.07
2022-10-09T20:26:33.312Z,11.13
2022-10-09T20:29:00.216Z,12.93
2022-10-09T20:31:27.319Z,7.38
2022-10-09T20:33:55.533Z,7.03
2022-10-09T20:36:31.493Z,7.72
2022-10-09T20:39:00.571Z,6.40
2022-10-09T20:41:28.839Z,6.68
2022-10-09T20:43:58.049Z,12.32
2022-10-09T20:46:28.747Z,11.00
2022-10-09T20:48:55.755Z,10.38
2022-10-09T20:51:23.670Z,8.60
2022-10-09T20:53:56.163Z,8.40
2022-10-09T20:56:23.911Z,10.00
2022-10-09T20:58:50.976Z,7.82
2022-10-09T21:01:17.884Z,5.60
2022-10-09T21:03:44.849Z,10.10
2022-10-09T21:06:13.876Z,6.72
2022-10-09T21:08:40.662Z,8.38
2022-10-09T21:11:12.401Z,7.63
2022-10-09T21:13:40.126Z,8.75
2022-10-09T21:16:10.513Z,10.68
2022-10-09T21:18:38.227Z,6.18
2022-10-09T21:21:11.213Z,7.55
2022-10-09T21:23:38.744Z,7.38
2022-10-09T21:26:11.963Z,8.35
2022-10-09T21:28:39.084Z,10.80
2022-10-09T21:31:10.183Z,5.55
2022-10-09T21:33:37.101Z,8.77
2022-10-09T21:36:10.201Z,6.32
2022-10-09T21:38:37.082Z,8.20
2022-10-09T21:41:04.492Z,7.18
2022-10-09T21:43:31.855Z,7.03
2022-10-09T21:45:59.128Z,6.25
2022-10-09T21:48:25.952Z,6.97
2022-10-09T21:50:52.896Z,4.45
2022-10-09T21:53:19.779Z,5.35
2022-10-09T21:55:47.070Z,6.05
2022-10-09T21:58:13.868Z,7.22
2022-10-09T22:00:40.830Z,5.93
2022-10-09T22:03:08.049Z,5.40
2022-10-09T22:05:35.284Z,13.57
2022-10-09T22:08:02.427Z,4.90
2022-10-09T22:10:29.439Z,6.72
2022-10-09T22:12:56.297Z,6.00
2022-10-09T22:15:23.449Z,4.90
2022-10-09T22:17:50.131Z,4.47
2022-10-09T22:20:16.992Z,4.35
2022-10-09T22:22:43.947Z,6.65
2022-10-09T22:25:10.905Z,8.15
2022-10-09T22:27:37.721Z,4.22
2022-10-09T22:30:04.806Z,4.82
2022-10-09T22:32:31.425Z,6.13
2022-10-09T22:34:58.155Z,5.18
2022-10-09T22:37:24.760Z,8.73
2022-10-09T22:39:51.397Z,7.90
2022-10-09T22:42:18.344Z,6.47
2022-10-09T22:44:45.118Z,14.00
2022-10-09T22:47:11.844Z,5.28
2022-10-09T22:49:38.454Z,3.40
2022-10-09T22:52:05.103Z,10.85
2022-10-09T22:54:31.778Z,15.77
2022-10-09T22:56:58.631Z,6.93
2022-10-09T22:59:25.413Z,7.60
2022-10-09T23:01:56.320Z,8.38
2022-10-09T23:04:24.000Z,6.07
2022-10-09T23:06:55.680Z,8.43
2022-10-09T23:09:24.011Z,6.65
2022-10-09T23:11:51.235Z,6.65
2022-10-09T23:14:20.266Z,3.75
2022-10-09T23:16:47.016Z,7.53
2022-10-09T23:19:13.829Z,7.45
2022-10-09T23:21:42.104Z,6.80
2022-10-09T23:24:10.785Z,4.95
2022-10-09T23:26:37.932Z,5.05
2022-10-09T23:29:11.681Z,6.57
2022-10-09T23:31:38.439Z,6.80
2022-10-09T23:34:06.625Z,4.95
2022-10-09T23:36:33.646Z,5.68
2022-10-09T23:39:01.582Z,6.75
2022-10-09T23:41:29.147Z,6.22
2022-10-09T23:43:56.204Z,6.32
2022-10-09T23:46:26.189Z,6.00
2022-10-09T23:48:53.438Z,5.35
2022-10-09T23:51:22.309Z,3.42
2022-10-09T23:53:49.025Z,4.45
2022-10-09T23:56:20.130Z,12.02
2022-10-09T23:58:47.269Z,13.30
